Time;durP1;ratioP1;P1;durP2;ratioP2;P2;SDS_P1;SDS_P2;PMS_P1;PMS_P2;Temp;Humidity;BMP_temperature;BMP_pressure;BME280_temperature;BME280_humidity;BME280_pressure;Samples;Min_cycle;Max_cycle;Signal;HPM_P1;HPM_P2
2023/10/01 00:00:12;;;;;;;13.20;11.90;;;17.40;24.40;;;;;;4978448;28;20422;-77
2023/10/01 00:02:38;;;;;;;12.10;10.80;;;17.30;24.70;;;;;;4957860;28;20439;-79
2023/10/01 00:05:07;;;;;;;11.47;10.33;;;17.30;24.70;;;;;;4959146;28;20445;-81
2023/10/01 00:07:37;;;;;;;11.37;10.37;;;17.30;24.70;;;;;;4956838;28;20419;-81
2023/10/01 00:10:12;;;;;;;11.90;10.70;;;17.40;24.70;;;;;;4941099;29;20418;-80
2023/10/01 00:12:44;;;;;;;12.03;11.03;;;17.30;24.60;;;;;;4958091;29;20505;-81
2023/10/01 00:15:14;;;;;;;13.50;12.30;;;17.40;24.70;;;;;;4958059;29;20423;-81
2023/10/01 00:17:41;;;;;;;13.40;12.20;;;17.30;24.80;;;;;;4958493;28;20422;-81
2023/10/01 00:20:17;;;;;;;13.20;11.93;;;17.30;24.90;;;;;;4941613;29;20419;-80
2023/10/01 00:22:44;;;;;;;13.63;12.40;;;17.30;24.90;;;;;;4958387;28;20485;-79
2023/10/01 00:25:10;;;;;;;13.37;12.30;;;17.30;25.10;;;;;;4958895;28;20513;-80
2023/10/01 00:27:36;;;;;;;12.73;11.70;;;17.20;25.00;;;;;;4958883;28;20419;-81
2023/10/01 00:30:04;;;;;;;14.60;13.30;;;17.20;25.10;;;;;;4958679;28;20676;-80
2023/10/01 00:32:32;;;;;;;15.20;13.80;;;17.20;25.00;;;;;;4958686;28;20427;-80
2023/10/01 00:34:58;;;;;;;13.77;12.67;;;17.20;24.90;;;;;;4958625;28;20411;-80
2023/10/01 00:37:24;;;;;;;13.37;12.17;;;17.20;25.00;;;;;;4957381;28;20442;-80
2023/10/01 00:39:56;;;;;;;13.07;11.97;;;17.20;25.00;;;;;;4957456;28;20168;-80
2023/10/01 00:42:23;;;;;;;13.93;12.60;;;17.20;25.10;;;;;;4955830;28;20945;-79
2023/10/01 00:44:48;;;;;;;14.10;12.73;;;17.10;25.30;;;;;;4943108;28;20426;-80
2023/10/01 00:47:14;;;;;;;12.40;11.50;;;17.10;25.30;;;;;;4942016;29;20467;-80
2023/10/01 00:49:46;;;;;;;14.50;13.20;;;17.10;25.30;;;;;;4959918;28;20230;-80
2023/10/01 00:52:13;;;;;;;13.40;12.10;;;17.10;25.50;;;;;;4941130;29;20947;-80
2023/10/01 00:54:38;;;;;;;12.80;11.67;;;17.10;25.50;;;;;;4955132;28;20430;-79
2023/10/01 00:57:04;;;;;;;13.33;12.17;;;17.10;25.40;;;;;;4956463;28;20419;-80
2023/10/01 00:59:32;;;;;;;13.83;12.63;;;17.10;25.30;;;;;;4956576;28;20218;-80
2023/10/01 01:02:07;;;;;;;13.03;11.67;;;17.10;25.20;;;;;;4956783;29;20408;-79
2023/10/01 01:04:42;;;;;;;14.57;13.17;;;17.10;25.30;;;;;;4958278;28;20901;-80
2023/10/01 01:07:20;;;;;;;13.07;11.83;;;17.10;25.40;;;;;;4959037;29;20462;-84
2023/10/01 01:09:46;;;;;;;12.47;11.37;;;17.10;25.30;;;;;;4960398;29;20425;-78
2023/10/01 01:12:13;;;;;;;12.50;11.40;;;17.10;25.50;;;;;;4939720;29;20454;-81
2023/10/01 01:14:39;;;;;;;12.27;11.17;;;17.00;25.50;;;;;;4954548;28;20423;-80
2023/10/01 01:17:05;;;;;;;13.10;11.80;;;17.00;25.50;;;;;;4939040;29;20524;-81
2023/10/01 01:19:34;;;;;;;14.20;12.80;;;17.00;25.40;;;;;;4955133;28;20443;-81
2023/10/01 01:22:02;;;;;;;13.67;12.57;;;17.00;25.40;;;;;;4955838;28;20706;-81
2023/10/01 01:24:29;;;;;;;13.00;11.70;;;17.00;25.60;;;;;;4955838;28;20419;-80
2023/10/01 01:27:00;;;;;;;13.97;12.77;;;16.90;25.50;;;;;;4955476;29;20501;-80
2023/10/01 01:29:34;;;;;;;13.37;12.27;;;16.90;25.50;;;;;;4956376;28;20407;-80
2023/10/01 01:32:24;;;;;;;13.93;12.73;;;16.90;25.70;;;;;;4955739;28;20485;-79
2023/10/01 01:34:52;;;;;;;13.60;12.27;;;16.90;25.80;;;;;;4955088;29;20423;-80
2023/10/01 01:37:36;;;;;;;13.40;12.20;;;16.80;25.60;;;;;;4955510;28;20427;-80
2023/10/01 01:40:13;;;;;;;13.97;12.70;;;16.80;25.80;;;;;;4955292;28;20502;-80
2023/10/01 01:42:39;;;;;;;13.90;12.67;;;16.90;25.90;;;;;;4955480;29;20973;-80
2023/10/01 01:45:25;;;;;;;12.57;11.47;;;16.80;25.80;;;;;;4953912;29;20419;-79
2023/10/01 01:47:51;;;;;;;14.50;13.23;;;16.80;25.90;;;;;;4954569;28;20598;-81
2023/10/01 01:50:21;;;;;;;15.30;14.00;;;16.80;25.80;;;;;;4955873;29;20423;-79
2023/10/01 01:52:52;;;;;;;14.40;13.00;;;16.80;25.90;;;;;;4953979;28;20206;-80
2023/10/01 01:55:27;;;;;;;14.00;12.80;;;16.80;26.50;;;;;;4938639;29;20506;-81
2023/10/01 01:58:10;;;;;;;14.40;13.30;;;16.80;25.90;;;;;;4953848;28;20863;-81
2023/10/01 02:01:01;;;;;;;14.13;12.93;;;16.80;25.90;;;;;;4942436;29;20411;-81
2023/10/01 02:03:33;;;;;;;12.10;11.20;;;16.80;26.00;;;;;;4958946;29;20432;-80
2023/10/01 02:05:59;;;;;;;14.40;13.00;;;16.70;26.10;;;;;;4958903;29;20497;-79
2023/10/01 02:08:34;;;;;;;13.40;12.20;;;16.70;26.00;;;;;;4958653;29;20583;-78
2023/10/01 02:11:04;;;;;;;13.20;11.97;;;16.70;25.90;;;;;;4957690;28;20426;-81
2023/10/01 02:13:30;;;;;;;13.97;12.30;;;16.70;25.90;;;;;;4959664;28;20461;-80
2023/10/01 02:16:18;;;;;;;13.63;12.53;;;16.70;25.80;;;;;;4943306;29;20461;-79
2023/10/01 02:18:41;;;;;;;14.10;12.90;;;16.60;25.80;;;;;;4960758;28;20425;-80
2023/10/01 02:21:16;;;;;;;13.43;12.23;;;16.70;25.90;;;;;;4958970;29;20800;-80
2023/10/01 02:23:42;;;;;;;13.70;12.60;;;16.70;25.90;;;;;;4960853;29;20751;-79
2023/10/01 02:26:07;;;;;;;12.67;11.50;;;16.60;25.90;;;;;;4942269;29;20498;-80
2023/10/01 02:28:36;;;;;;;13.53;12.23;;;16.60;25.90;;;;;;4959177;28;20427;-80
2023/10/01 02:31:03;;;;;;;12.07;11.17;;;16.70;25.90;;;;;;4960604;29;20203;-79
2023/10/01 02:33:55;;;;;;;14.07;12.77;;;16.70;26.00;;;;;;4959854;28;20435;-79
2023/10/01 02:36:22;;;;;;;11.93;10.90;;;16.60;26.00;;;;;;4959110;29;20495;-79
2023/10/01 02:38:53;;;;;;;13.90;12.60;;;16.60;26.10;;;;;;4942980;29;20431;-79
2023/10/01 02:41:25;;;;;;;13.70;12.40;;;16.50;26.10;;;;;;4943062;29;20439;-79
2023/10/01 02:43:53;;;;;;;13.60;12.50;;;16.60;26.20;;;;;;4960166;29;20517;-79
2023/10/01 02:46:26;;;;;;;12.93;11.83;;;16.50;26.10;;;;;;4958682;28;20462;-79
2023/10/01 02:48:59;;;;;;;12.87;11.67;;;16.50;26.30;;;;;;4960051;29;20403;-80
2023/10/01 02:51:32;;;;;;;13.97;12.20;;;16.50;26.30;;;;;;4959484;29;20507;-78
2023/10/01 02:54:03;;;;;;;13.93;12.77;;;16.60;26.40;;;;;;4957316;28;20404;-78
2023/10/01 02:56:52;;;;;;;15.10;13.50;;;16.50;26.40;;;;;;4957908;29;20403;-79
2023/10/01 02:59:18;;;;;;;14.87;13.57;;;16.30;26.70;;;;;;4957599;28;20450;-78
2023/10/01 03:01:47;;;;;;;12.90;11.80;;;16.30;26.90;;;;;;4958283;29;20415;-78
2023/10/01 03:04:16;;;;;;;14.33;13.13;;;16.30;26.90;;;;;;4956563;28;20431;-78
2023/10/01 03:06:56;;;;;;;14.57;13.23;;;16.40;26.90;;;;;;4957175;28;20471;-80
2023/10/01 03:09:33;;;;;;;14.13;12.63;;;16.40;26.80;;;;;;4957084;28;20422;-80
2023/10/01 03:17:38;;;;;;;14.37;13.00;;;16.40;26.70;;;;;;4958368;29;20401;-79
2023/10/01 03:21:04;;;;;;;14.40;13.30;;;16.40;26.70;;;;;;4956741;28;20481;-78
2023/10/01 03:22:57;;;;;;;13.70;12.33;;;16.40;26.80;;;;;;4960523;29;20469;-79
2023/10/01 03:25:30;;;;;;;12.33;11.23;;;16.30;26.70;;;;;;4960381;29;20490;-80
2023/10/01 03:27:59;;;;;;;14.60;13.43;;;16.20;26.70;;;;;;4942505;29;20412;-80
2023/10/01 03:30:32;;;;;;;15.17;13.67;;;16.00;27.30;;;;;;4958249;28;20419;-80
2023/10/01 03:33:07;;;;;;;13.20;12.20;;;15.90;27.40;;;;;;4958287;29;20435;-79
2023/10/01 03:35:34;;;;;;;14.57;13.37;;;15.90;27.50;;;;;;4959165;29;20407;-77
2023/10/01 03:38:10;;;;;;;13.63;12.33;;;16.00;27.30;;;;;;4941148;29;20458;-78
2023/10/01 03:40:59;;;;;;;13.37;12.37;;;16.10;27.30;;;;;;4958102;29;20736;-79
2023/10/01 03:43:31;;;;;;;14.70;13.10;;;16.20;27.30;;;;;;4957495;29;20469;-80
2023/10/01 03:46:07;;;;;;;14.13;12.87;;;16.30;26.90;;;;;;4957767;28;20461;-78
2023/10/01 03:48:57;;;;;;;14.30;13.23;;;16.30;26.90;;;;;;4976020;28;20448;-80
2023/10/01 03:51:52;;;;;;;13.60;12.50;;;16.30;26.70;;;;;;4976128;28;20399;-80
2023/10/01 03:54:19;;;;;;;13.90;12.73;;;16.40;26.50;;;;;;4977672;28;20433;-79
2023/10/01 03:56:47;;;;;;;14.87;13.50;;;16.40;26.20;;;;;;4976457;28;20418;-79
2023/10/01 03:59:16;;;;;;;13.73;12.60;;;16.30;26.60;;;;;;4976789;28;20452;-80
2023/10/01 04:02:00;;;;;;;14.17;12.87;;;16.10;27.30;;;;;;4975994;28;20425;-81
2023/10/01 04:04:56;;;;;;;15.20;13.90;;;15.80;27.70;;;;;;4975508;28;20422;-80
2023/10/01 04:07:22;;;;;;;14.60;13.40;;;15.70;28.50;;;;;;4961184;28;20481;-80
2023/10/01 04:09:50;;;;;;;14.87;13.60;;;15.60;28.60;;;;;;4975649;28;20826;-80
2023/10/01 04:12:19;;;;;;;15.07;13.77;;;15.40;29.50;;;;;;4975158;28;20449;-80
2023/10/01 04:14:52;;;;;;;16.17;14.43;;;15.30;29.80;;;;;;4956958;28;20426;-80
2023/10/01 04:17:25;;;;;;;15.40;14.10;;;15.30;29.80;;;;;;4974823;28;20401;-80
2023/10/01 04:19:57;;;;;;;14.37;13.10;;;15.20;29.90;;;;;;4958444;28;20794;-80
2023/10/01 04:22:25;;;;;;;14.70;13.40;;;15.20;30.10;;;;;;4957065;28;20442;-79
2023/10/01 04:25:01;;;;;;;14.73;13.37;;;15.40;29.60;;;;;;4958364;28;20421;-78
2023/10/01 04:27:30;;;;;;;14.17;12.97;;;15.50;29.10;;;;;;4958242;28;20417;-79
2023/10/01 04:30:00;;;;;;;13.60;12.50;;;15.70;28.80;;;;;;4974651;28;20415;-80
2023/10/01 04:32:27;;;;;;;14.30;13.17;;;15.80;28.20;;;;;;4957154;28;20449;-79
2023/10/01 04:34:58;;;;;;;13.87;12.77;;;15.90;27.80;;;;;;4963136;28;20415;-78
2023/10/01 04:37:37;;;;;;;15.47;14.17;;;16.00;27.50;;;;;;4977046;28;20394;-78
2023/10/01 04:40:54;;;;;;;14.40;13.00;;;16.10;27.30;;;;;;4974001;28;20405;-78
2023/10/01 04:43:04;;;;;;;14.40;13.20;;;16.00;27.30;;;;;;4973253;28;20496;-80
2023/10/01 04:45:36;;;;;;;16.30;14.90;;;16.10;27.50;;;;;;4973617;28;20449;-78
2023/10/01 04:48:15;;;;;;;14.07;12.77;;;16.10;27.30;;;;;;4973823;28;20744;-78
2023/10/01 04:50:42;;;;;;;13.53;12.33;;;16.10;27.30;;;;;;4985771;28;20445;-79
2023/10/01 04:53:07;;;;;;;13.93;12.83;;;16.10;27.30;;;;;;4986896;28;20454;-80
2023/10/01 04:55:41;;;;;;;14.70;12.90;;;16.10;27.30;;;;;;4976094;28;20819;-79
2023/10/01 04:58:07;;;;;;;12.90;11.93;;;15.90;27.20;;;;;;4956446;28;20621;-78
2023/10/01 05:00:34;;;;;;;13.33;12.20;;;15.80;27.60;;;;;;4955823;28;20426;-78
2023/10/01 05:03:03;;;;;;;13.47;12.37;;;15.60;27.80;;;;;;4973306;28;20433;-80
2023/10/01 05:05:28;;;;;;;12.63;11.63;;;15.60;27.90;;;;;;4972661;28;20456;-77
2023/10/01 05:07:58;;;;;;;12.60;11.30;;;15.40;28.30;;;;;;4974189;28;20410;-78
2023/10/01 05:10:25;;;;;;;14.10;12.90;;;15.40;29.00;;;;;;4956074;28;20167;-80
2023/10/01 05:12:55;;;;;;;13.03;11.87;;;15.50;28.80;;;;;;4973927;28;20454;-77
2023/10/01 05:15:31;;;;;;;12.50;11.30;;;15.50;28.40;;;;;;4973936;28;20414;-78
2023/10/01 05:17:58;;;;;;;13.80;12.60;;;15.60;28.30;;;;;;4956508;28;20472;-77
2023/10/01 05:20:28;;;;;;;13.60;12.40;;;15.60;28.20;;;;;;4974851;28;20422;-80
2023/10/01 05:22:57;;;;;;;13.67;12.37;;;15.70;28.10;;;;;;4955386;28;21000;-79
2023/10/01 05:25:27;;;;;;;14.23;12.80;;;15.70;27.80;;;;;;4955800;28;20461;-80
2023/10/01 05:27:55;;;;;;;13.13;11.93;;;15.80;27.70;;;;;;4956462;28;20493;-80
2023/10/01 05:30:42;;;;;;;13.73;12.57;;;15.90;27.30;;;;;;4956850;28;20425;-80
2023/10/01 05:33:11;;;;;;;14.00;12.77;;;16.00;27.30;;;;;;4957531;28;20456;-80
2023/10/01 05:35:43;;;;;;;14.63;13.30;;;16.00;27.30;;;;;;4977674;28;20422;-78
2023/10/01 05:38:10;;;;;;;13.30;12.27;;;16.00;27.30;;;;;;4977901;28;20402;-80
2023/10/01 05:40:37;;;;;;;14.40;12.97;;;16.00;27.30;;;;;;4959651;28;20441;-78
2023/10/01 05:43:13;;;;;;;14.20;13.00;;;16.00;27.30;;;;;;4960032;28;20449;-80
2023/10/01 05:45:41;;;;;;;15.50;14.10;;;15.90;27.20;;;;;;4976468;28;20456;-80
2023/10/01 05:48:18;;;;;;;14.63;13.40;;;15.80;27.40;;;;;;4959815;28;20414;-78
2023/10/01 05:50:47;;;;;;;15.20;13.90;;;15.70;28.10;;;;;;4977892;28;20406;-79
2023/10/01 05:53:13;;;;;;;15.30;14.00;;;15.80;28.10;;;;;;4960569;28;20529;-79
2023/10/01 05:55:43;;;;;;;14.30;13.07;;;15.80;27.70;;;;;;4977613;28;20882;-80
2023/10/01 05:58:19;;;;;;;14.23;13.13;;;15.90;27.80;;;;;;4959627;28;20437;-80
2023/10/01 06:01:05;;;;;;;15.10;13.90;;;15.80;27.20;;;;;;4977611;28;20862;-79
2023/10/01 06:03:31;;;;;;;14.60;13.30;;;15.60;27.70;;;;;;4960415;28;20441;-79
2023/10/01 06:06:06;;;;;;;15.40;13.90;;;15.30;28.50;;;;;;4959947;28;20472;-79
2023/10/01 06:08:32;;;;;;;13.90;12.50;;;15.10;29.10;;;;;;4977401;28;20466;-78
2023/10/01 06:11:04;;;;;;;15.30;13.70;;;15.10;29.30;;;;;;4976804;28;20438;-79
2023/10/01 06:13:30;;;;;;;16.27;15.03;;;15.00;29.50;;;;;;4977537;28;20210;-78
2023/10/01 06:15:58;;;;;;;14.37;13.00;;;14.90;29.70;;;;;;4978297;28;20468;-77
2023/10/01 06:18:25;;;;;;;14.60;13.30;;;14.80;30.00;;;;;;4981825;28;20418;-78
2023/10/01 06:20:50;;;;;;;14.30;13.00;;;14.70;30.40;;;;;;4977136;28;20457;-77
2023/10/01 06:23:21;;;;;;;15.90;14.50;;;14.70;30.80;;;;;;4974220;28;20469;-79
2023/10/01 06:25:53;;;;;;;14.60;13.40;;;14.60;31.00;;;;;;4974102;28;20489;-78
2023/10/01 06:28:23;;;;;;;14.37;12.73;;;14.60;31.00;;;;;;4974580;28;20414;-80
2023/10/01 06:30:49;;;;;;;15.10;13.60;;;14.70;30.70;;;;;;4975825;28;20497;-77
2023/10/01 06:33:29;;;;;;;14.80;13.50;;;14.70;30.80;;;;;;4975802;28;20849;-79
2023/10/01 06:38:41;;;;;;;14.20;13.00;;;14.80;30.60;;;;;;4976902;28;20788;-78
2023/10/01 06:41:13;;;;;;;13.77;12.53;;;14.90;31.40;;;;;;4957893;28;20417;-78
2023/10/01 06:43:54;;;;;;;14.50;13.10;;;15.00;30.90;;;;;;4976032;28;20466;-79
2023/10/01 06:46:29;;;;;;;12.90;11.70;;;15.00;30.10;;;;;;4957308;28;20458;-79
2023/10/01 06:49:03;;;;;;;16.17;14.83;;;15.00;30.00;;;;;;4973546;28;20420;-82
2023/10/01 06:51:37;;;;;;;15.27;13.37;;;14.90;30.10;;;;;;4956056;28;20414;-80
2023/10/01 06:54:05;;;;;;;14.83;13.33;;;14.90;30.30;;;;;;4958367;28;20787;-80
2023/10/01 06:56:33;;;;;;;14.70;13.47;;;14.90;30.40;;;;;;4976475;28;20454;-81
2023/10/01 07:05:16;;;;;;;13.13;11.93;;;15.00;30.70;;;;;;4963234;28;20414;-81
2023/10/01 07:07:49;;;;;;;13.50;12.40;;;15.20;30.00;;;;;;4978154;28;20418;-82
2023/10/01 07:10:19;;;;;;;15.27;13.90;;;15.40;29.70;;;;;;4939029;28;20797;-80
2023/10/01 07:12:57;;;;;;;13.70;12.57;;;15.30;29.60;;;;;;4950081;28;20817;-81
2023/10/01 07:15:25;;;;;;;13.10;12.10;;;15.40;29.50;;;;;;4963338;28;20415;-79
2023/10/01 07:17:52;;;;;;;15.03;13.80;;;15.40;29.50;;;;;;4959869;29;20403;-80
2023/10/01 07:20:18;;;;;;;13.87;12.63;;;15.50;30.00;;;;;;4959975;29;20830;-80
2023/10/01 07:22:44;;;;;;;13.90;12.80;;;15.60;29.70;;;;;;4960385;29;20422;-79
2023/10/01 07:25:28;;;;;;;13.67;12.20;;;15.80;29.30;;;;;;4941744;29;20618;-80
2023/10/01 07:27:59;;;;;;;14.30;12.90;;;15.80;28.50;;;;;;4945344;29;20172;-78
2023/10/01 07:30:39;;;;;;;13.43;12.30;;;15.70;28.90;;;;;;4951101;29;20430;-78
2023/10/01 07:33:22;;;;;;;13.23;12.00;;;15.80;29.00;;;;;;4963358;29;20454;-79
2023/10/01 07:36:01;;;;;;;13.53;12.43;;;15.90;28.70;;;;;;4950639;29;20431;-80
2023/10/01 07:38:46;;;;;;;16.87;15.43;;;16.00;28.30;;;;;;4949423;29;20434;-80
2023/10/01 07:41:17;;;;;;;14.40;13.10;;;16.00;28.20;;;;;;4949729;29;20451;-78
2023/10/01 07:43:43;;;;;;;13.87;12.57;;;16.10;28.20;;;;;;4947775;29;20443;-78
2023/10/01 07:46:09;;;;;;;13.30;12.00;;;16.20;28.00;;;;;;4942414;29;20555;-78
2023/10/01 07:48:37;;;;;;;12.40;11.33;;;16.20;28.00;;;;;;4940590;29;20440;-77
2023/10/01 07:51:03;;;;;;;13.33;12.10;;;16.30;27.80;;;;;;4956468;29;20189;-79
2023/10/01 07:53:42;;;;;;;16.10;14.50;;;16.40;27.50;;;;;;4939839;29;20810;-78
2023/10/01 07:56:15;;;;;;;13.20;12.00;;;16.40;27.60;;;;;;4956679;28;20716;-78
2023/10/01 07:58:47;;;;;;;12.47;11.33;;;16.40;27.50;;;;;;4939127;29;20427;-79
2023/10/01 08:03:58;;;;;;;13.20;12.10;;;16.50;27.60;;;;;;4957994;28;20441;-79
2023/10/01 08:06:30;;;;;;;12.77;11.47;;;16.50;27.60;;;;;;4941572;29;20471;-79
2023/10/01 08:09:01;;;;;;;12.80;11.70;;;16.50;27.60;;;;;;4941307;29;20183;-82
2023/10/01 08:14:11;;;;;;;13.77;12.73;;;16.40;27.50;;;;;;4958522;28;20486;-78
2023/10/01 08:16:47;;;;;;;13.30;12.00;;;16.40;27.50;;;;;;4941305;29;20486;-79
2023/10/01 08:19:20;;;;;;;13.40;12.13;;;16.40;27.80;;;;;;4940531;29;20449;-77
2023/10/01 08:21:53;;;;;;;12.50;11.40;;;16.40;28.10;;;;;;4940186;29;20462;-79
2023/10/01 08:24:33;;;;;;;13.13;11.97;;;16.50;27.90;;;;;;4956929;28;20418;-78
2023/10/01 08:27:03;;;;;;;13.87;12.27;;;16.70;27.70;;;;;;4957156;28;20458;-78
2023/10/01 08:29:59;;;;;;;13.40;12.13;;;16.70;27.70;;;;;;4957854;28;21207;-79
2023/10/01 08:32:22;;;;;;;13.13;12.03;;;16.70;27.60;;;;;;4956733;28;21021;-79
2023/10/01 08:35:05;;;;;;;12.70;11.40;;;16.80;27.80;;;;;;4956500;28;20408;-79
2023/10/01 08:37:31;;;;;;;12.93;11.67;;;16.90;27.40;;;;;;4956157;28;20915;-78
2023/10/01 08:40:00;;;;;;;12.57;11.27;;;16.90;27.50;;;;;;4939283;28;20431;-79
2023/10/01 08:42:29;;;;;;;13.37;12.00;;;17.00;27.80;;;;;;4967561;23;20492;-78
2023/10/01 08:45:03;;;;;;;12.90;11.70;;;17.10;27.00;;;;;;4980140;28;20414;-78
2023/10/01 08:47:45;;;;;;;12.73;10.80;;;17.10;26.80;;;;;;4982707;28;20557;-78
2023/10/01 08:50:27;;;;;;;12.30;11.10;;;17.20;27.10;;;;;;4941435;28;20437;-78
2023/10/01 08:53:01;;;;;;;11.73;10.40;;;17.30;26.70;;;;;;4981539;28;20883;-77
2023/10/01 08:56:04;;;;;;;14.37;12.70;;;17.30;26.70;;;;;;4982354;28;20900;-77
2023/10/01 08:58:41;;;;;;;12.33;11.33;;;17.60;26.50;;;;;;4976301;28;20433;-77
2023/10/01 09:01:13;;;;;;;12.30;11.30;;;17.80;25.80;;;;;;4967128;28;20448;-77
2023/10/01 09:03:39;;;;;;;11.90;10.80;;;18.00;25.50;;;;;;4984100;28;20829;-77
2023/10/01 09:06:24;;;;;;;13.97;11.80;;;18.20;24.90;;;;;;4964776;28;20489;-77
2023/10/01 09:08:54;;;;;;;12.50;11.40;;;18.30;24.30;;;;;;4982562;28;20426;-77
2023/10/01 09:11:36;;;;;;;11.03;10.10;;;18.50;24.80;;;;;;4984998;28;20417;-77
2023/10/01 09:14:17;;;;;;;12.97;11.67;;;18.60;23.90;;;;;;4981033;28;20417;-77
2023/10/01 09:16:49;;;;;;;11.63;10.47;;;18.80;23.20;;;;;;4982548;28;20516;-77
2023/10/01 09:19:31;;;;;;;13.33;11.27;;;18.90;23.10;;;;;;4974546;28;20522;-77
2023/10/01 09:25:25;;;;;;;11.00;10.13;;;19.10;23.00;;;;;;4981839;28;20968;-77
2023/10/01 09:27:57;;;;;;;12.13;11.13;;;19.20;22.40;;;;;;4979802;28;20415;-78
2023/10/01 09:30:26;;;;;;;12.80;11.33;;;19.50;22.20;;;;;;4965243;28;20436;-77
2023/10/01 09:32:54;;;;;;;11.53;10.57;;;19.50;21.50;;;;;;4982164;28;20437;-77
2023/10/01 09:35:38;;;;;;;11.10;10.20;;;19.60;21.50;;;;;;4978718;28;20791;-76
2023/10/01 09:38:10;;;;;;;11.23;10.20;;;19.70;21.50;;;;;;4964472;28;20422;-77
2023/10/01 09:40:38;;;;;;;11.00;10.00;;;19.80;21.50;;;;;;4982846;28;20417;-77
2023/10/01 09:43:04;;;;;;;11.87;10.77;;;19.80;21.60;;;;;;4979833;28;20510;-77
2023/10/01 09:45:38;;;;;;;11.47;10.43;;;19.80;21.60;;;;;;4979294;28;20442;-77
2023/10/01 09:48:07;;;;;;;12.47;11.37;;;19.90;21.60;;;;;;4983637;28;20418;-78
2023/10/01 09:50:39;;;;;;;11.90;10.80;;;20.00;21.40;;;;;;4984505;28;20432;-77
2023/10/01 09:53:19;;;;;;;11.33;10.27;;;20.10;21.10;;;;;;4980579;28;20459;-77
2023/10/01 09:55:49;;;;;;;10.70;9.90;;;20.30;20.90;;;;;;4980186;28;20418;-76
2023/10/01 09:58:29;;;;;;;10.80;9.87;;;20.30;20.40;;;;;;4972310;28;20426;-79
2023/10/01 10:01:02;;;;;;;11.47;10.33;;;20.30;20.60;;;;;;4963423;28;20977;-77
2023/10/01 10:03:37;;;;;;;11.10;10.20;;;20.30;20.50;;;;;;4982420;28;20463;-77
2023/10/01 10:06:07;;;;;;;11.40;10.50;;;20.30;20.50;;;;;;4982127;28;20471;-76
2023/10/01 10:08:35;;;;;;;11.70;10.70;;;20.30;20.70;;;;;;4961905;28;20906;-77
2023/10/01 10:11:07;;;;;;;11.47;10.27;;;20.40;20.70;;;;;;4962259;28;20430;-76
2023/10/01 10:13:45;;;;;;;11.67;10.60;;;20.60;20.00;;;;;;4976255;28;20450;-75
2023/10/01 10:16:33;;;;;;;11.73;9.90;;;20.60;20.30;;;;;;4984154;28;20936;-78
2023/10/01 10:19:21;;;;;;;10.37;9.30;;;20.70;19.60;;;;;;4984694;28;20428;-77
2023/10/01 10:22:05;;;;;;;11.90;10.90;;;20.80;19.40;;;;;;4988482;28;20434;-77
2023/10/01 10:24:46;;;;;;;12.67;10.33;;;20.90;19.40;;;;;;4969041;28;20734;-77
2023/10/01 10:27:24;;;;;;;11.33;10.33;;;21.00;19.30;;;;;;4990627;28;20496;-78
2023/10/01 10:29:56;;;;;;;11.37;10.33;;;21.10;18.90;;;;;;4975242;28;20437;-79
2023/10/01 10:32:28;;;;;;;11.13;10.13;;;21.20;18.50;;;;;;4989181;28;20449;-79
2023/10/01 10:35:06;;;;;;;11.77;10.67;;;21.20;18.30;;;;;;4971959;28;20470;-79
2023/10/01 10:37:38;;;;;;;10.40;9.37;;;21.30;18.50;;;;;;4991605;28;20433;-79
2023/10/01 10:43:06;;;;;;;11.87;10.77;;;21.30;18.40;;;;;;4978121;28;20529;-80
2023/10/01 10:45:45;;;;;;;10.90;9.60;;;21.30;18.30;;;;;;4966041;28;20507;-81
2023/10/01 10:48:14;;;;;;;12.13;11.13;;;21.40;18.90;;;;;;4981044;28;20426;-80
2023/10/01 10:50:49;;;;;;;11.97;10.23;;;21.40;18.40;;;;;;4987482;28;20425;-80
2023/10/01 10:53:20;;;;;;;13.67;11.30;;;21.40;18.70;;;;;;4970040;28;20445;-80
2023/10/01 10:56:06;;;;;;;11.90;10.90;;;21.40;18.40;;;;;;4980807;28;20422;-80
2023/10/01 10:58:39;;;;;;;11.37;10.27;;;21.40;18.20;;;;;;4970636;28;20977;-79
2023/10/01 11:01:22;;;;;;;11.10;10.17;;;21.40;18.50;;;;;;4990182;28;20445;-80
2023/10/01 11:03:50;;;;;;;11.00;10.00;;;21.40;18.40;;;;;;4978020;28;21034;-80
2023/10/01 11:06:23;;;;;;;11.97;10.77;;;21.50;18.40;;;;;;4962178;28;20468;-79
2023/10/01 11:08:50;;;;;;;11.47;10.30;;;21.50;18.40;;;;;;4961916;28;20459;-81
2023/10/01 11:11:30;;;;;;;11.60;10.40;;;21.60;18.00;;;;;;4980342;28;20465;-80
2023/10/01 11:14:00;;;;;;;11.70;10.50;;;21.60;18.00;;;;;;4975957;28;20537;-79
2023/10/01 11:16:38;;;;;;;10.90;9.80;;;21.60;18.30;;;;;;4961119;28;20546;-78
2023/10/01 11:19:14;;;;;;;11.40;10.30;;;21.60;18.00;;;;;;4986198;28;20448;-78
2023/10/01 11:21:58;;;;;;;10.60;9.50;;;21.60;18.20;;;;;;4985151;28;20517;-78
2023/10/01 11:24:29;;;;;;;12.27;9.33;;;21.60;17.80;;;;;;4988557;28;20413;-78
2023/10/01 11:27:22;;;;;;;9.73;8.80;;;21.60;17.80;;;;;;4978282;28;20515;-78
2023/10/01 11:30:24;;;;;;;9.93;8.90;;;21.70;17.90;;;;;;4967182;28;20654;-78
2023/10/01 11:32:58;;;;;;;10.83;9.83;;;21.70;17.30;;;;;;4983096;28;20488;-78
2023/10/01 11:35:31;;;;;;;10.67;9.63;;;21.70;17.40;;;;;;4968892;28;20799;-78
2023/10/01 11:38:07;;;;;;;11.27;10.13;;;21.60;17.50;;;;;;4967413;28;20426;-78
2023/10/01 11:43:27;;;;;;;11.70;10.60;;;21.70;18.10;;;;;;4984533;28;20452;-79
2023/10/01 11:46:21;;;;;;;11.47;10.27;;;21.60;17.50;;;;;;4984986;28;20468;-78
2023/10/01 11:48:56;;;;;;;10.80;9.70;;;21.80;17.10;;;;;;4980421;28;20936;-78
2023/10/01 11:54:15;;;;;;;11.00;9.90;;;21.80;17.40;;;;;;4978758;28;20426;-78
2023/10/01 11:56:43;;;;;;;11.60;10.27;;;21.70;17.20;;;;;;4977361;28;20426;-79
2023/10/01 11:59:17;;;;;;;11.27;9.93;;;21.70;17.50;;;;;;4978426;28;20913;-79
2023/10/01 12:01:48;;;;;;;13.20;10.90;;;21.70;17.60;;;;;;4988789;28;20478;-77
2023/10/01 12:04:24;;;;;;;10.73;9.83;;;21.70;17.30;;;;;;4976602;28;20430;-79
2023/10/01 12:06:53;;;;;;;11.93;10.70;;;21.70;17.20;;;;;;4979156;28;20457;-79
2023/10/01 12:09:24;;;;;;;12.40;11.20;;;21.80;16.90;;;;;;4989895;28;20436;-80
2023/10/01 12:12:03;;;;;;;11.87;10.83;;;21.80;17.20;;;;;;4979489;28;20434;-80
2023/10/01 12:14:32;;;;;;;11.50;10.40;;;21.90;17.00;;;;;;4979068;28;20461;-79
2023/10/01 12:17:01;;;;;;;10.77;9.80;;;21.90;17.10;;;;;;4979493;28;20976;-80
2023/10/01 12:19:29;;;;;;;10.77;9.77;;;22.10;17.00;;;;;;4978071;28;20430;-78
2023/10/01 12:22:09;;;;;;;10.90;9.90;;;22.00;16.60;;;;;;4961355;28;20446;-78
2023/10/01 12:24:39;;;;;;;11.63;10.43;;;22.10;16.40;;;;;;4982653;28;20422;-79
2023/10/01 12:27:10;;;;;;;11.60;10.40;;;22.00;16.50;;;;;;4967688;28;20454;-78
2023/10/01 12:29:48;;;;;;;11.03;9.97;;;22.00;17.00;;;;;;4979423;28;20473;-79
2023/10/01 12:32:14;;;;;;;12.00;10.80;;;22.10;16.70;;;;;;4976573;28;20820;-78
2023/10/01 12:34:43;;;;;;;11.30;10.23;;;22.00;16.50;;;;;;4956536;28;20441;-77
2023/10/01 12:37:35;;;;;;;11.80;10.67;;;22.10;16.60;;;;;;4965853;28;20434;-77
2023/10/01 12:40:14;;;;;;;10.93;9.77;;;22.10;16.30;;;;;;4970721;28;20437;-78
2023/10/01 12:42:40;;;;;;;11.13;10.13;;;22.10;16.30;;;;;;4972267;28;20508;-78
2023/10/01 12:45:19;;;;;;;10.37;9.37;;;22.10;16.40;;;;;;4970903;28;20444;-78
2023/10/01 12:47:51;;;;;;;11.93;10.83;;;22.00;16.50;;;;;;4954529;28;20464;-77
2023/10/01 12:50:26;;;;;;;14.77;10.00;;;22.10;16.10;;;;;;4972701;28;20785;-77
2023/10/01 12:53:47;;;;;;;11.40;10.20;;;22.10;16.00;;;;;;4972791;28;20449;-76
2023/10/01 12:55:53;;;;;;;12.10;10.80;;;22.10;16.60;;;;;;4967459;28;20446;-77
2023/10/01 12:58:35;;;;;;;11.67;10.50;;;22.20;15.80;;;;;;4972382;28;20833;-82
2023/10/01 13:01:35;;;;;;;11.40;10.27;;;22.30;15.20;;;;;;4968403;28;20803;-79
2023/10/01 13:07:07;;;;;;;10.83;9.83;;;22.50;15.50;;;;;;4948270;28;20524;-78
2023/10/01 13:12:17;;;;;;;11.47;10.10;;;22.60;14.90;;;;;;4966001;28;20888;-79
2023/10/01 13:14:44;;;;;;;10.87;9.83;;;22.60;14.90;;;;;;4938598;28;20508;-78
2023/10/01 13:17:23;;;;;;;11.27;9.80;;;22.70;14.20;;;;;;4974994;28;20438;-79
2023/10/01 13:20:18;;;;;;;10.60;9.60;;;22.80;14.30;;;;;;4976803;28;20437;-79
2023/10/01 13:22:59;;;;;;;10.27;9.27;;;22.80;13.60;;;;;;4986201;28;20445;-78
2023/10/01 13:25:26;;;;;;;11.57;10.47;;;22.80;13.80;;;;;;4984188;28;20429;-77
2023/10/01 13:28:01;;;;;;;10.27;9.27;;;22.70;14.40;;;;;;4964843;28;20864;-77
2023/10/01 13:33:23;;;;;;;11.43;10.23;;;22.60;14.40;;;;;;4985654;28;20476;-79
2023/10/01 13:35:56;;;;;;;10.03;9.10;;;22.50;14.80;;;;;;4964184;28;20445;-78
2023/10/01 13:38:27;;;;;;;9.83;8.87;;;22.40;15.00;;;;;;4962657;28;20885;-78